Time;durP1;ratioP1;P1;durP2;ratioP2;P2;SDS_P1;SDS_P2;PMS_P1;PMS_P2;Temp;Humidity;BMP_temperature;BMP_pressure;BME280_temperature;BME280_humidity;BME280_pressure;Samples;Min_cycle;Max_cycle;Signal;HPM_P1;HPM_P2
2022/01/28 00:01:39;;;;;;;17.47;8.70;;;4.90;99.90;;;;;;5101217;28;20316;-82
2022/01/28 00:04:29;;;;;;;17.00;8.20;;;4.90;99.90;;;;;;5106386;28;20234;-82
2022/01/28 00:07:19;;;;;;;16.70;8.97;;;4.90;99.90;;;;;;5104615;28;20658;-83
2022/01/28 00:10:08;;;;;;;15.73;8.73;;;4.90;99.90;;;;;;5119046;28;20214;-80
2022/01/28 00:16:40;;;;;;;16.57;7.67;;;5.00;99.90;;;;;;5105065;28;20223;-82
2022/01/28 00:38:29;;;;;;;15.33;7.00;;;5.20;99.90;;;;;;5087583;28;20218;-81
2022/01/28 00:41:17;;;;;;;12.37;6.67;;;5.30;99.90;;;;;;5091171;27;20214;-81
2022/01/28 00:44:06;;;;;;;13.40;6.47;;;5.20;99.90;;;;;;5093257;28;20232;-83
2022/01/28 00:46:56;;;;;;;14.10;5.93;;;5.10;99.90;;;;;;5096618;27;20230;-83
2022/01/28 00:49:45;;;;;;;9.87;5.37;;;5.00;99.90;;;;;;5096622;27;20224;-84
2022/01/28 00:52:35;;;;;;;10.93;5.53;;;5.00;99.90;;;;;;5104303;28;20588;-83
2022/01/28 00:55:24;;;;;;;11.30;5.07;;;5.00;99.90;;;;;;5104768;28;20237;-82
2022/01/28 00:58:12;;;;;;;8.30;4.07;;;4.90;99.90;;;;;;5091642;28;20232;-82
2022/01/28 01:01:01;;;;;;;8.23;4.47;;;4.90;99.90;;;;;;5109842;27;20296;-85
2022/01/28 01:03:50;;;;;;;9.70;4.50;;;4.90;99.90;;;;;;5111245;28;20248;-78
2022/01/28 01:06:38;;;;;;;11.47;4.47;;;4.90;99.90;;;;;;5123215;27;20226;-83
2022/01/28 01:09:28;;;;;;;13.67;4.27;;;4.90;99.90;;;;;;5118515;27;20241;-83
2022/01/28 01:12:20;;;;;;;11.07;4.17;;;4.80;99.90;;;;;;5093517;28;20229;-82
2022/01/28 01:15:10;;;;;;;7.50;3.63;;;4.80;99.90;;;;;;5093695;28;20238;-81
2022/01/28 01:18:04;;;;;;;9.10;3.77;;;4.80;99.90;;;;;;5113062;27;20234;-82
2022/01/28 01:21:03;;;;;;;8.07;3.20;;;4.90;99.90;;;;;;5110622;28;20254;-83
2022/01/28 01:23:55;;;;;;;8.83;3.40;;;4.90;99.90;;;;;;5091652;28;20221;-82
2022/01/28 01:26:45;;;;;;;12.37;3.60;;;4.80;99.90;;;;;;5107399;28;20228;-82
2022/01/28 01:29:33;;;;;;;10.83;3.30;;;4.70;99.90;;;;;;5088387;28;20216;-79
2022/01/28 01:32:22;;;;;;;8.17;3.10;;;4.70;99.90;;;;;;5088865;28;20214;-81
2022/01/28 01:35:11;;;;;;;4.30;2.63;;;4.80;99.90;;;;;;5104432;28;20244;-80
2022/01/28 01:38:00;;;;;;;7.80;2.63;;;4.80;99.90;;;;;;5095660;28;20232;-81
2022/01/28 01:40:52;;;;;;;10.37;2.83;;;4.70;99.90;;;;;;5105113;28;20587;-79
2022/01/28 01:43:59;;;;;;;6.00;2.13;;;4.80;99.90;;;;;;5090826;28;20217;-80
2022/01/28 01:47:12;;;;;;;6.03;2.70;;;4.70;99.90;;;;;;5101587;28;20349;-79
2022/01/28 01:53:03;;;;;;;6.93;2.60;;;4.70;99.90;;;;;;5061584;28;20224;-80
2022/01/28 01:55:51;;;;;;;9.43;2.90;;;4.80;99.90;;;;;;5101279;28;20224;-79
2022/01/28 01:58:41;;;;;;;7.97;2.53;;;4.70;99.90;;;;;;5113157;27;20688;-79
2022/01/28 02:01:31;;;;;;;5.20;2.47;;;4.80;99.90;;;;;;5091680;28;20214;-79
2022/01/28 02:04:20;;;;;;;4.57;2.33;;;4.80;99.90;;;;;;5107065;28;20594;-79
2022/01/28 02:07:09;;;;;;;7.00;2.70;;;4.90;99.90;;;;;;5090380;28;20537;-76
2022/01/28 02:09:58;;;;;;;9.07;2.60;;;4.90;99.90;;;;;;5106145;28;20230;-80
2022/01/28 02:12:49;;;;;;;6.10;2.60;;;4.90;99.90;;;;;;5105498;27;20702;-80
2022/01/28 02:15:37;;;;;;;7.27;2.50;;;4.90;99.90;;;;;;5103522;28;20219;-79
2022/01/28 02:18:28;;;;;;;6.50;2.60;;;5.00;99.90;;;;;;5108337;28;20591;-79
2022/01/28 02:21:19;;;;;;;9.23;3.23;;;4.90;99.90;;;;;;5091488;28;20242;-79
2022/01/28 02:24:08;;;;;;;9.53;3.20;;;4.80;99.90;;;;;;5096095;27;20218;-81
2022/01/28 02:26:57;;;;;;;7.00;3.10;;;4.80;99.90;;;;;;5091171;28;20213;-78
2022/01/28 02:29:46;;;;;;;6.93;3.10;;;4.80;99.90;;;;;;5111444;27;20240;-80
2022/01/28 02:32:37;;;;;;;8.00;3.50;;;5.00;99.90;;;;;;5107383;28;20233;-79
2022/01/28 02:35:26;;;;;;;8.13;3.37;;;4.80;99.90;;;;;;5102648;27;20230;-80
2022/01/28 02:38:17;;;;;;;6.03;2.80;;;4.80;99.90;;;;;;5089783;28;20218;-79
2022/01/28 02:41:07;;;;;;;9.83;3.27;;;4.80;99.90;;;;;;5106940;28;20228;-80
2022/01/28 02:44:07;;;;;;;6.37;3.13;;;4.80;99.90;;;;;;5089430;28;20305;-82
2022/01/28 02:46:59;;;;;;;11.00;2.53;;;4.80;99.90;;;;;;5090445;28;20237;-81
2022/01/28 02:49:48;;;;;;;7.07;2.43;;;4.60;99.90;;;;;;5097275;28;20219;-82
2022/01/28 02:52:44;;;;;;;11.57;2.83;;;4.50;99.90;;;;;;5092275;28;20227;-82
2022/01/28 02:55:38;;;;;;;6.90;2.73;;;4.50;99.90;;;;;;5100451;28;20229;-82
2022/01/28 02:58:27;;;;;;;3.80;1.80;;;4.50;99.90;;;;;;5104760;28;20573;-82
2022/01/28 03:01:18;;;;;;;9.97;2.50;;;4.40;99.90;;;;;;5103228;28;20230;-83
2022/01/28 03:04:09;;;;;;;9.67;2.77;;;4.40;99.90;;;;;;5106202;28;20225;-79
2022/01/28 03:06:58;;;;;;;8.47;2.20;;;4.40;99.90;;;;;;5120077;28;20356;-80
2022/01/28 03:10:02;;;;;;;8.90;2.23;;;4.30;99.90;;;;;;5097844;28;20571;-80
2022/01/28 03:13:15;;;;;;;12.80;3.27;;;4.20;99.90;;;;;;5103707;28;20222;-81
2022/01/28 03:16:10;;;;;;;6.93;2.50;;;4.10;99.90;;;;;;5094370;28;20223;-79
2022/01/28 03:19:02;;;;;;;8.63;3.07;;;4.10;99.90;;;;;;5094243;28;20326;-80
2022/01/28 03:21:55;;;;;;;10.03;2.23;;;4.20;99.90;;;;;;5107010;28;20223;-79
2022/01/28 03:24:47;;;;;;;9.10;3.20;;;4.20;99.90;;;;;;5107400;28;20226;-82
2022/01/28 03:27:48;;;;;;;6.80;3.03;;;4.10;99.90;;;;;;5095255;28;20270;-81
2022/01/28 03:30:38;;;;;;;10.10;3.40;;;4.20;99.90;;;;;;5088781;28;20718;-81
2022/01/28 03:33:27;;;;;;;10.13;3.47;;;4.00;99.90;;;;;;5096009;28;20310;-81
2022/01/28 03:36:16;;;;;;;10.13;4.23;;;4.10;99.90;;;;;;5088572;28;20225;-82
2022/01/28 03:39:07;;;;;;;9.07;3.00;;;4.00;99.90;;;;;;5078685;28;20218;-79
2022/01/28 03:41:56;;;;;;;9.27;3.37;;;4.00;99.90;;;;;;5081756;28;20223;-80
2022/01/28 03:44:45;;;;;;;6.37;2.97;;;3.90;99.90;;;;;;5084631;28;20616;-80
2022/01/28 03:47:35;;;;;;;9.00;3.53;;;3.90;99.90;;;;;;5096675;28;20228;-79
2022/01/28 03:50:24;;;;;;;7.40;3.33;;;4.00;99.90;;;;;;5082555;28;20221;-80
2022/01/28 03:53:12;;;;;;;11.43;3.50;;;4.00;99.90;;;;;;5100410;28;20217;-78
2022/01/28 03:56:01;;;;;;;8.07;3.00;;;4.00;99.90;;;;;;5103947;28;20571;-79
2022/01/28 03:58:50;;;;;;;5.93;3.07;;;3.90;99.90;;;;;;5088213;28;20214;-80
2022/01/28 04:01:40;;;;;;;7.27;3.00;;;3.90;99.90;;;;;;5083655;28;20217;-78
2022/01/28 04:13:49;;;;;;;8.60;3.13;;;3.70;99.90;;;;;;5087676;28;20212;-81
2022/01/28 04:19:48;;;;;;;5.70;3.10;;;3.80;99.90;;;;;;5117971;27;20668;-81
2022/01/28 04:22:37;;;;;;;7.30;3.30;;;3.70;99.90;;;;;;5089517;28;20212;-80
2022/01/28 04:25:26;;;;;;;5.63;2.70;;;3.60;99.90;;;;;;5100780;28;20217;-80
2022/01/28 04:28:14;;;;;;;6.33;2.70;;;3.70;99.90;;;;;;5102111;28;20313;-79
2022/01/28 04:31:03;;;;;;;7.57;3.13;;;3.60;99.90;;;;;;5099309;28;20354;-80
2022/01/28 04:33:53;;;;;;;8.50;3.13;;;3.70;99.90;;;;;;5092017;28;20656;-81
2022/01/28 04:36:53;;;;;;;8.27;2.73;;;3.60;99.90;;;;;;5085918;27;20241;-81
2022/01/28 04:39:49;;;;;;;7.23;2.50;;;3.70;99.90;;;;;;5090186;28;20220;-81
2022/01/28 04:43:00;;;;;;;6.90;2.80;;;3.70;99.90;;;;;;5080357;28;20231;-82
2022/01/28 04:45:55;;;;;;;10.70;3.00;;;3.70;99.90;;;;;;5097131;27;20307;-80
2022/01/28 04:48:51;;;;;;;8.57;3.03;;;3.80;99.90;;;;;;5090601;28;20243;-79
2022/01/28 04:51:56;;;;;;;5.90;2.53;;;3.60;99.90;;;;;;5105393;27;20223;-80
2022/01/28 04:55:00;;;;;;;7.57;2.80;;;3.70;99.90;;;;;;5105055;27;20221;-78
2022/01/28 04:58:02;;;;;;;5.57;2.80;;;3.80;99.90;;;;;;5086669;28;20219;-81
2022/01/28 05:01:03;;;;;;;7.77;3.20;;;3.70;99.90;;;;;;5104952;27;20216;-81
2022/01/28 05:04:05;;;;;;;7.00;3.00;;;3.70;99.90;;;;;;5095862;28;20233;-84
2022/01/28 05:07:26;;;;;;;7.97;2.63;;;3.70;99.90;;;;;;5101580;28;20226;-83
2022/01/28 05:26:12;;;;;;;8.87;2.80;;;3.70;99.90;;;;;;5099679;28;20226;-79
2022/01/28 05:29:00;;;;;;;8.13;3.00;;;3.70;99.90;;;;;;5086060;28;20219;-78
2022/01/28 05:31:48;;;;;;;9.33;2.77;;;3.80;99.90;;;;;;5080389;28;20654;-79
2022/01/28 05:34:37;;;;;;;5.33;2.67;;;3.80;99.90;;;;;;5100151;28;20289;-77
2022/01/28 05:37:26;;;;;;;6.20;2.37;;;3.90;99.90;;;;;;5103765;28;20251;-78
2022/01/28 05:40:20;;;;;;;4.93;2.43;;;3.90;99.90;;;;;;5091312;28;20225;-79
2022/01/28 05:43:10;;;;;;;5.13;2.60;;;3.90;99.90;;;;;;5098642;28;20214;-79
2022/01/28 05:46:03;;;;;;;8.80;2.80;;;4.00;99.90;;;;;;5085252;28;20237;-81
2022/01/28 05:48:51;;;;;;;7.27;3.13;;;3.90;99.90;;;;;;5100773;28;20236;-81
2022/01/28 05:51:40;;;;;;;4.93;2.17;;;4.00;99.90;;;;;;5101884;28;20235;-82
2022/01/28 05:54:29;;;;;;;5.03;2.63;;;4.00;99.90;;;;;;5074462;28;20225;-82
2022/01/28 05:57:17;;;;;;;4.90;2.90;;;4.00;99.90;;;;;;5118755;27;20222;-80
2022/01/28 06:00:09;;;;;;;10.97;5.40;;;3.90;99.90;;;;;;5089892;27;20216;-80
2022/01/28 06:03:04;;;;;;;3.77;1.70;;;4.10;99.90;;;;;;5103610;27;20213;-81
2022/01/28 06:05:53;;;;;;;5.80;1.87;;;4.10;99.90;;;;;;5104051;27;20419;-81
2022/01/28 06:08:42;;;;;;;4.20;1.83;;;4.10;99.90;;;;;;5089610;27;20224;-80
2022/01/28 06:11:30;;;;;;;4.43;1.80;;;4.10;99.90;;;;;;5082024;28;20223;-80
2022/01/28 06:14:19;;;;;;;4.37;1.70;;;4.10;99.90;;;;;;5083988;28;20216;-80
2022/01/28 06:17:09;;;;;;;6.93;2.17;;;4.10;99.90;;;;;;5093260;27;20273;-79
2022/01/28 06:20:02;;;;;;;3.63;1.83;;;4.10;99.90;;;;;;5089239;28;20214;-79
2022/01/28 06:22:51;;;;;;;4.83;1.87;;;4.10;99.90;;;;;;5101309;27;20287;-81
2022/01/28 06:25:40;;;;;;;3.07;1.43;;;4.10;99.90;;;;;;5101420;28;20566;-81
2022/01/28 06:28:29;;;;;;;6.60;2.00;;;4.10;99.90;;;;;;5096541;28;20348;-82
2022/01/28 06:31:18;;;;;;;4.83;1.93;;;4.10;99.90;;;;;;5108422;27;20250;-80
2022/01/28 06:34:10;;;;;;;3.63;1.90;;;4.10;99.90;;;;;;5108030;27;20293;-79
2022/01/28 06:36:59;;;;;;;4.17;1.90;;;4.10;99.90;;;;;;5095516;28;20239;-80
2022/01/28 06:39:47;;;;;;;5.27;2.10;;;4.10;99.90;;;;;;5091377;28;20652;-81
2022/01/28 06:42:36;;;;;;;6.83;2.10;;;4.10;99.90;;;;;;5089237;28;20232;-81
2022/01/28 06:45:25;;;;;;;6.97;2.43;;;4.10;99.90;;;;;;5106884;27;20243;-82
2022/01/28 06:48:19;;;;;;;9.00;2.83;;;4.10;99.90;;;;;;5102671;28;20214;-79
2022/01/28 06:51:09;;;;;;;6.13;2.40;;;4.20;99.90;;;;;;5091442;28;20220;-83
2022/01/28 06:53:57;;;;;;;4.57;2.30;;;4.10;99.90;;;;;;5085374;28;20216;-81
2022/01/28 06:56:47;;;;;;;5.83;2.30;;;4.10;99.90;;;;;;5103273;27;20713;-81
2022/01/28 06:59:36;;;;;;;7.23;2.30;;;4.20;99.90;;;;;;5088587;28;20371;-81
2022/01/28 07:02:25;;;;;;;5.83;2.30;;;4.20;99.90;;;;;;5098892;28;20224;-80
2022/01/28 07:05:14;;;;;;;8.40;2.50;;;4.10;99.90;;;;;;5091993;28;20670;-81
2022/01/28 07:08:09;;;;;;;5.87;2.50;;;4.20;99.90;;;;;;5118667;27;20205;-82
2022/01/28 07:10:58;;;;;;;6.30;2.80;;;4.20;99.90;;;;;;5091853;28;20297;-76
2022/01/28 07:13:49;;;;;;;7.80;2.83;;;4.20;99.90;;;;;;5101493;28;20229;-79
2022/01/28 07:16:38;;;;;;;6.83;2.47;;;4.10;99.90;;;;;;5111185;27;20225;-79
2022/01/28 07:19:27;;;;;;;4.23;2.20;;;4.20;99.90;;;;;;5098517;28;20249;-80
2022/01/28 07:22:15;;;;;;;5.67;2.20;;;4.10;99.90;;;;;;5085885;28;20559;-80
2022/01/28 07:25:07;;;;;;;3.33;2.00;;;4.20;99.90;;;;;;5083870;28;20224;-81
2022/01/28 07:27:55;;;;;;;3.53;2.27;;;4.20;99.90;;;;;;5089798;28;20238;-78
2022/01/28 07:30:44;;;;;;;3.47;2.47;;;4.20;99.90;;;;;;5085274;28;20213;-78
2022/01/28 07:33:32;;;;;;;7.87;2.63;;;4.30;99.90;;;;;;5101970;28;20712;-78
2022/01/28 07:36:21;;;;;;;4.80;2.20;;;4.20;99.90;;;;;;5097336;28;20638;-78
2022/01/28 07:39:11;;;;;;;6.97;2.60;;;4.30;99.90;;;;;;5085840;28;20226;-78
2022/01/28 07:42:01;;;;;;;3.20;2.10;;;4.20;99.90;;;;;;5108450;27;20626;-78
2022/01/28 07:44:51;;;;;;;6.93;2.73;;;4.30;99.90;;;;;;5094404;28;20223;-77
2022/01/28 07:47:40;;;;;;;5.33;2.67;;;4.40;99.90;;;;;;5101993;27;20224;-80
2022/01/28 07:50:28;;;;;;;5.90;2.67;;;4.30;99.90;;;;;;5105471;28;20225;-77
2022/01/28 07:53:17;;;;;;;6.63;2.80;;;4.30;99.90;;;;;;5089106;28;20240;-76
2022/01/28 07:56:06;;;;;;;5.40;2.67;;;4.30;99.90;;;;;;5103443;28;20790;-77
2022/01/28 07:58:56;;;;;;;5.20;2.67;;;4.30;99.90;;;;;;5107136;27;20248;-77
2022/01/28 08:01:45;;;;;;;5.23;2.53;;;4.40;99.90;;;;;;5110513;27;20591;-86
2022/01/28 08:04:34;;;;;;;4.47;2.47;;;4.40;99.90;;;;;;5112251;27;20236;-79
2022/01/28 08:07:23;;;;;;;4.30;2.50;;;4.30;99.90;;;;;;5102232;27;20584;-78
2022/01/28 08:10:16;;;;;;;4.03;2.50;;;4.30;99.90;;;;;;5105395;28;20229;-78
2022/01/28 08:13:05;;;;;;;5.77;2.53;;;4.30;99.90;;;;;;5102409;28;20771;-79
2022/01/28 08:15:55;;;;;;;3.33;2.20;;;4.30;99.90;;;;;;5081194;28;20245;-78
2022/01/28 08:18:44;;;;;;;2.53;1.90;;;4.20;99.90;;;;;;5082344;28;20366;-77
2022/01/28 08:21:33;;;;;;;3.17;1.80;;;4.10;99.90;;;;;;5084730;28;20228;-77
2022/01/28 08:24:21;;;;;;;2.70;1.90;;;4.20;99.90;;;;;;5088129;28;21001;-77
2022/01/28 08:27:10;;;;;;;3.03;2.10;;;4.20;99.90;;;;;;5097796;28;21028;-76
2022/01/28 08:29:59;;;;;;;2.50;1.50;;;4.20;99.90;;;;;;5081228;27;20228;-76
2022/01/28 08:32:50;;;;;;;6.73;1.90;;;4.10;99.90;;;;;;5089793;28;20224;-75
2022/01/28 08:35:40;;;;;;;3.77;1.53;;;4.20;99.90;;;;;;5089704;28;20235;-78
2022/01/28 08:38:35;;;;;;;3.40;1.33;;;4.10;99.90;;;;;;5107780;27;20219;-76
2022/01/28 08:41:24;;;;;;;2.80;1.80;;;4.00;99.90;;;;;;5109274;27;20835;-78
2022/01/28 08:44:13;;;;;;;4.10;1.60;;;4.10;99.90;;;;;;5101774;27;20217;-78
2022/01/28 08:47:02;;;;;;;2.00;1.40;;;4.10;99.90;;;;;;5106345;27;20232;-78
2022/01/28 08:49:52;;;;;;;4.43;1.90;;;4.10;99.90;;;;;;5099776;27;20225;-77
2022/01/28 08:52:42;;;;;;;2.23;1.50;;;4.20;99.90;;;;;;5090316;27;20720;-77
2022/01/28 08:55:31;;;;;;;4.13;1.80;;;4.20;99.90;;;;;;5089361;28;20225;-78
2022/01/28 08:58:20;;;;;;;2.43;1.40;;;4.10;99.90;;;;;;5107907;28;20222;-77
2022/01/28 09:01:11;;;;;;;2.27;1.50;;;4.10;99.90;;;;;;5089355;27;20233;-78
2022/01/28 09:03:59;;;;;;;4.47;1.60;;;4.10;99.90;;;;;;5091993;27;20709;-78
2022/01/28 09:06:50;;;;;;;2.57;1.50;;;4.00;99.90;;;;;;5099675;27;20304;-77
2022/01/28 09:09:47;;;;;;;2.03;1.50;;;4.20;99.90;;;;;;5089502;28;20221;-77
2022/01/28 09:12:39;;;;;;;2.33;1.40;;;4.20;99.90;;;;;;5115447;27;20218;-77
2022/01/28 09:15:35;;;;;;;3.60;1.30;;;4.10;99.90;;;;;;5099860;27;20227;-77
2022/01/28 09:18:25;;;;;;;2.63;1.57;;;4.10;99.90;;;;;;5102376;27;20359;-76
2022/01/28 09:21:13;;;;;;;3.33;1.43;;;4.10;99.90;;;;;;5102088;27;20250;-78
2022/01/28 09:24:04;;;;;;;2.97;1.83;;;4.10;99.90;;;;;;5084232;27;20216;-76
2022/01/28 09:26:54;;;;;;;2.73;1.70;;;4.10;99.90;;;;;;5097724;28;20229;-77
2022/01/28 09:29:43;;;;;;;2.23;2.00;;;4.20;99.90;;;;;;5084065;28;20230;-77
2022/01/28 09:32:32;;;;;;;2.13;1.60;;;4.20;99.90;;;;;;5096452;27;20239;-77
2022/01/28 09:35:21;;;;;;;5.50;2.20;;;4.30;99.90;;;;;;5086047;28;20220;-77
2022/01/28 09:38:11;;;;;;;4.03;2.10;;;4.20;99.90;;;;;;5100386;28;20225;-78
2022/01/28 09:41:03;;;;;;;4.23;2.40;;;4.20;99.90;;;;;;5098934;27;20230;-78
2022/01/28 09:43:52;;;;;;;3.13;1.80;;;4.10;99.90;;;;;;5098187;27;20683;-77
2022/01/28 09:46:42;;;;;;;2.43;1.80;;;4.10;99.90;;;;;;5101189;27;20223;-77
2022/01/28 09:49:33;;;;;;;2.43;1.80;;;4.10;99.90;;;;;;5102008;27;20223;-77
2022/01/28 09:52:21;;;;;;;3.30;1.80;;;4.20;99.90;;;;;;5088865;28;20284;-77
2022/01/28 09:55:12;;;;;;;3.27;2.00;;;4.30;99.90;;;;;;5097393;27;20223;-77
2022/01/28 09:58:02;;;;;;;2.43;1.67;;;4.40;99.90;;;;;;5106085;27;20212;-78
2022/01/28 10:00:51;;;;;;;4.17;2.00;;;4.20;99.90;;;;;;5110084;27;20273;-78
2022/01/28 10:03:40;;;;;;;3.27;1.90;;;4.20;99.90;;;;;;5087890;28;20341;-76
2022/01/28 10:06:32;;;;;;;4.03;1.97;;;4.20;99.90;;;;;;5087808;27;20236;-78
2022/01/28 10:09:23;;;;;;;2.00;1.50;;;4.20;99.90;;;;;;5092587;27;20324;-77
2022/01/28 10:12:19;;;;;;;2.10;1.80;;;4.20;99.90;;;;;;5102600;27;20216;-74
2022/01/28 10:15:17;;;;;;;4.47;1.50;;;4.20;99.90;;;;;;5088167;27;20304;-79
2022/01/28 10:18:06;;;;;;;3.67;2.00;;;4.20;99.90;;;;;;5112808;27;20220;-78
2022/01/28 10:20:55;;;;;;;2.87;1.70;;;4.10;99.90;;;;;;5104074;28;20601;-77
2022/01/28 10:23:44;;;;;;;2.63;2.23;;;4.20;99.90;;;;;;5090866;27;20681;-79
2022/01/28 10:26:36;;;;;;;4.77;3.27;;;4.30;99.90;;;;;;5109442;27;20225;-79
2022/01/28 10:29:28;;;;;;;4.10;2.50;;;4.40;99.90;;;;;;5095146;28;20243;-78
2022/01/28 10:32:20;;;;;;;7.27;4.77;;;4.40;99.90;;;;;;5104621;27;20297;-81
2022/01/28 10:35:09;;;;;;;2.77;1.93;;;4.30;99.90;;;;;;5109011;28;20217;-75
2022/01/28 10:37:59;;;;;;;5.50;3.70;;;4.40;99.90;;;;;;5105347;27;20210;-81
2022/01/28 10:41:07;;;;;;;3.00;1.90;;;4.40;99.90;;;;;;5105608;27;20387;-80
2022/01/28 10:43:58;;;;;;;2.30;1.77;;;4.50;99.90;;;;;;5090263;27;20227;-75
2022/01/28 10:46:53;;;;;;;4.67;2.47;;;4.50;99.90;;;;;;5085184;28;20219;-74
2022/01/28 10:49:43;;;;;;;2.50;1.80;;;4.50;99.90;;;;;;5091682;27;20317;-75
2022/01/28 10:52:33;;;;;;;7.87;3.10;;;4.60;99.90;;;;;;5083811;28;20255;-75
2022/01/28 10:55:42;;;;;;;3.37;1.80;;;4.70;99.90;;;;;;4973985;28;20578;-75
2022/01/28 10:58:31;;;;;;;2.57;1.47;;;4.80;99.90;;;;;;4976079;28;21122;-76
2022/01/28 11:01:20;;;;;;;3.17;1.60;;;4.70;99.90;;;;;;4983461;28;20222;-74
2022/01/28 11:04:11;;;;;;;2.60;1.77;;;4.70;99.90;;;;;;4973823;28;20225;-75
2022/01/28 11:07:01;;;;;;;2.60;1.50;;;4.80;99.90;;;;;;4991031;28;20239;-75
2022/01/28 11:09:51;;;;;;;4.03;1.80;;;4.60;99.90;;;;;;4992942;28;20219;-75
2022/01/28 11:12:44;;;;;;;3.00;1.70;;;4.60;99.90;;;;;;4996274;28;20220;-74
2022/01/28 11:15:37;;;;;;;3.13;2.43;;;4.80;99.90;;;;;;5005948;28;20228;-75
2022/01/28 11:18:27;;;;;;;3.27;1.80;;;4.60;99.90;;;;;;5009496;28;20244;-74
2022/01/28 11:21:19;;;;;;;4.10;1.70;;;4.70;99.90;;;;;;4992905;28;20245;-74
2022/01/28 11:24:13;;;;;;;2.87;1.73;;;4.70;99.90;;;;;;4995742;28;20221;-75
2022/01/28 11:27:10;;;;;;;3.50;1.77;;;4.70;99.90;;;;;;5010364;28;20252;-73
2022/01/28 11:30:25;;;;;;;3.03;1.60;;;4.70;99.90;;;;;;5004626;28;20232;-76
2022/01/28 11:33:15;;;;;;;2.33;1.50;;;4.70;99.90;;;;;;4993395;28;20245;-76
2022/01/28 11:36:04;;;;;;;2.67;1.67;;;4.60;99.90;;;;;;4993892;28;20222;-75
2022/01/28 11:38:56;;;;;;;3.47;1.60;;;4.60;99.90;;;;;;4990060;28;20841;-74
2022/01/28 11:42:05;;;;;;;3.57;1.57;;;4.80;99.90;;;;;;4994561;28;20278;-74
2022/01/28 11:44:55;;;;;;;3.23;1.90;;;4.70;99.90;;;;;;5008402;28;20238;-74
2022/01/28 11:47:54;;;;;;;4.83;1.83;;;4.80;99.90;;;;;;4990289;28;20226;-75
2022/01/28 11:50:52;;;;;;;3.13;1.50;;;4.90;99.90;;;;;;5003240;28;20221;-74
2022/01/28 11:53:54;;;;;;;3.00;1.83;;;4.80;99.90;;;;;;4998622;28;20333;-74
2022/01/28 11:57:16;;;;;;;3.47;1.77;;;4.90;99.90;;;;;;5015936;28;20636;-75
2022/01/28 12:00:23;;;;;;;2.63;1.73;;;4.80;99.90;;;;;;5004127;28;20288;-74
2022/01/28 12:03:25;;;;;;;4.20;1.87;;;4.90;99.90;;;;;;5012253;28;20243;-75
2022/01/28 12:06:17;;;;;;;2.10;1.53;;;4.80;99.90;;;;;;5003339;28;20313;-75
2022/01/28 12:09:08;;;;;;;3.40;1.83;;;4.70;99.90;;;;;;5003907;28;20805;-75
2022/01/28 12:11:57;;;;;;;4.20;1.90;;;4.70;99.90;;;;;;4986378;28;20219;-75
2022/01/28 12:15:08;;;;;;;2.73;1.97;;;4.70;99.90;;;;;;4987854;28;20262;-74
2022/01/28 12:18:10;;;;;;;4.07;2.20;;;4.90;99.90;;;;;;4989178;28;20224;-75
2022/01/28 12:21:00;;;;;;;7.10;2.10;;;4.80;99.90;;;;;;4983188;28;20252;-75
2022/01/28 12:23:49;;;;;;;3.77;2.20;;;4.70;99.90;;;;;;4994662;28;20263;-75
2022/01/28 12:26:56;;;;;;;3.93;1.97;;;4.80;99.90;;;;;;5001887;28;20321;-75
2022/01/28 12:29:47;;;;;;;4.50;1.83;;;4.60;99.90;;;;;;5011454;28;20242;-75
2022/01/28 12:32:37;;;;;;;4.80;2.40;;;4.70;99.90;;;;;;4998617;28;20233;-74
2022/01/28 12:35:29;;;;;;;4.23;2.00;;;4.70;99.90;;;;;;4996739;28;20233;-76
2022/01/28 12:38:23;;;;;;;4.23;2.27;;;4.80;99.90;;;;;;4994604;28;20223;-76
2022/01/28 12:41:15;;;;;;;4.00;1.87;;;4.60;99.90;;;;;;4999793;28;20599;-75
2022/01/28 12:44:05;;;;;;;4.57;1.70;;;4.70;99.90;;;;;;5001339;28;20271;-75
2022/01/28 12:46:59;;;;;;;3.33;2.03;;;4.70;99.90;;;;;;4995119;28;20225;-75
2022/01/28 12:49:54;;;;;;;3.33;1.77;;;4.80;99.90;;;;;;4995978;28;20222;-75
2022/01/28 12:52:47;;;;;;;3.13;1.80;;;4.90;99.90;;;;;;4990966;28;20222;-76
2022/01/28 12:55:42;;;;;;;2.40;1.70;;;4.90;99.90;;;;;;5013656;28;20254;-76
2022/01/28 12:58:36;;;;;;;3.10;1.50;;;4.80;99.90;;;;;;4987554;28;20226;-74
2022/01/28 13:01:25;;;;;;;3.83;1.50;;;4.70;99.90;;;;;;5001474;28;20226;-74
2022/01/28 13:04:17;;;;;;;2.30;1.40;;;4.60;99.90;;;;;;4988220;28;20299;-75
2022/01/28 13:10:12;;;;;;;2.40;1.40;;;4.80;99.90;;;;;;4990769;28;20225;-74
2022/01/28 13:13:08;;;;;;;2.73;1.80;;;4.70;99.90;;;;;;4990449;28;20804;-74
2022/01/28 13:15:58;;;;;;;2.53;1.43;;;4.90;99.90;;;;;;5001399;28;20232;-74
2022/01/28 13:18:56;;;;;;;2.93;1.60;;;4.90;99.90;;;;;;4986087;28;20324;-73
2022/01/28 13:21:47;;;;;;;2.07;1.30;;;4.90;99.90;;;;;;4997735;28;20229;-72
2022/01/28 13:24:39;;;;;;;3.47;1.43;;;4.90;99.90;;;;;;4999050;28;20587;-74
2022/01/28 13:27:42;;;;;;;3.27;1.50;;;4.80;99.90;;;;;;5002186;28;20226;-73
2022/01/28 13:30:37;;;;;;;3.10;1.63;;;4.90;99.90;;;;;;4987531;28;20313;-71
2022/01/28 13:33:29;;;;;;;3.57;1.40;;;4.90;99.90;;;;;;4998139;28;20230;-71
2022/01/28 13:36:19;;;;;;;4.07;1.67;;;5.00;99.90;;;;;;4988200;28;20237;-72
2022/01/28 13:39:15;;;;;;;2.37;1.83;;;4.90;99.90;;;;;;5010434;28;21054;-71
2022/01/28 13:42:08;;;;;;;3.07;1.37;;;4.90;99.90;;;;;;5001514;28;20228;-72
2022/01/28 13:45:03;;;;;;;3.63;1.50;;;4.90;99.90;;;;;;4994869;28;20319;-73
2022/01/28 13:47:54;;;;;;;2.20;1.23;;;4.80;99.90;;;;;;5010492;28;20685;-69
2022/01/28 13:50:46;;;;;;;2.47;1.30;;;4.80;99.90;;;;;;4985066;28;20299;-68
2022/01/28 13:56:50;;;;;;;1.83;1.20;;;4.90;99.90;;;;;;4999042;28;20638;-72
2022/01/28 13:59:42;;;;;;;4.50;1.50;;;4.80;99.90;;;;;;4998214;28;20243;-70
2022/01/28 14:02:40;;;;;;;2.60;1.40;;;4.80;99.90;;;;;;4996172;28;20598;-70
2022/01/28 14:05:52;;;;;;;4.73;1.70;;;4.70;99.90;;;;;;4983299;28;20225;-72
2022/01/28 14:09:09;;;;;;;5.10;1.70;;;4.80;99.90;;;;;;4998474;28;20575;-75
2022/01/28 14:12:01;;;;;;;3.63;1.73;;;4.70;99.90;;;;;;4994339;28;20377;-74
2022/01/28 14:14:51;;;;;;;2.77;1.50;;;4.70;99.90;;;;;;4998310;28;20717;-71
2022/01/28 14:17:40;;;;;;;3.73;1.70;;;4.80;99.90;;;;;;4985931;28;20459;-73
2022/01/28 14:20:29;;;;;;;3.73;1.70;;;4.80;99.90;;;;;;5010979;28;20290;-73
2022/01/28 14:23:20;;;;;;;3.20;1.80;;;4.70;99.90;;;;;;5001815;28;20227;-73
2022/01/28 14:26:09;;;;;;;9.17;2.33;;;4.70;99.90;;;;;;4996339;28;20238;-73
2022/01/28 14:32:05;;;;;;;3.13;1.60;;;4.70;99.90;;;;;;4962761;28;20235;-72
2022/01/28 14:34:56;;;;;;;2.77;1.90;;;4.80;99.90;;;;;;4993074;28;20699;-72
2022/01/28 14:37:45;;;;;;;4.13;1.67;;;4.80;99.90;;;;;;4992911;28;20225;-72
2022/01/28 14:40:35;;;;;;;3.27;2.00;;;4.70;99.90;;;;;;4980852;28;20314;-72
2022/01/28 14:43:23;;;;;;;3.83;1.60;;;4.70;99.90;;;;;;4982186;28;20263;-72
2022/01/28 14:46:12;;;;;;;2.33;1.50;;;4.70;99.90;;;;;;4999027;28;20714;-72
2022/01/28 14:49:04;;;;;;;3.13;1.57;;;4.70;99.90;;;;;;4992655;28;20229;-72
2022/01/28 14:51:55;;;;;;;3.20;1.80;;;4.70;99.90;;;;;;4982730;28;20226;-73
2022/01/28 14:54:44;;;;;;;2.63;1.40;;;4.70;99.90;;;;;;4992802;28;20218;-72
2022/01/28 14:57:34;;;;;;;3.63;1.40;;;4.70;99.90;;;;;;4991292;28;20234;-72
2022/01/28 15:00:23;;;;;;;2.83;1.50;;;4.60;99.90;;;;;;4980714;28;20314;-72
2022/01/28 15:03:12;;;;;;;3.93;1.40;;;4.60;99.90;;;;;;4993369;28;20235;-73
2022/01/28 15:06:01;;;;;;;2.40;1.33;;;4.60;99.90;;;;;;5010114;28;20230;-71
2022/01/28 15:08:51;;;;;;;2.50;1.33;;;4.60;99.90;;;;;;4996555;28;20622;-72
2022/01/28 15:11:46;;;;;;;2.20;1.30;;;4.60;99.90;;;;;;4983756;28;20233;-73
2022/01/28 15:14:37;;;;;;;3.13;1.23;;;4.50;99.90;;;;;;4993138;28;20878;-71
2022/01/28 15:17:29;;;;;;;2.10;1.13;;;4.60;99.90;;;;;;4991560;28;20241;-72
2022/01/28 15:20:18;;;;;;;3.60;1.10;;;4.60;99.90;;;;;;4986853;28;20223;-71
2022/01/28 15:23:07;;;;;;;2.57;1.77;;;4.50;99.90;;;;;;4991306;28;20225;-74
2022/01/28 15:25:55;;;;;;;6.23;4.17;;;4.30;99.90;;;;;;4996514;28;20222;-76
2022/01/28 15:29:00;;;;;;;3.43;1.47;;;4.30;99.90;;;;;;4990466;28;20237;-73
2022/01/28 15:35:19;;;;;;;2.47;1.30;;;4.20;99.90;;;;;;4990269;28;20223;-73
2022/01/28 15:38:08;;;;;;;2.87;1.40;;;4.20;99.90;;;;;;5000200;28;20221;-74
2022/01/28 15:40:56;;;;;;;3.07;1.30;;;4.20;99.90;;;;;;4998377;28;20713;-73
2022/01/28 15:43:50;;;;;;;4.27;1.50;;;4.20;99.90;;;;;;4998378;28;20303;-76
2022/01/28 15:46:39;;;;;;;3.77;1.60;;;4.20;99.90;;;;;;5003151;28;20239;-75
2022/01/28 15:49:29;;;;;;;2.83;1.70;;;4.30;99.90;;;;;;4989213;28;20230;-75
2022/01/28 15:52:18;;;;;;;3.57;1.50;;;4.30;99.90;;;;;;5003907;28;20216;-75
2022/01/28 15:55:08;;;;;;;4.00;1.60;;;4.20;99.90;;;;;;5002516;28;20226;-74
2022/01/28 15:57:56;;;;;;;3.47;1.60;;;4.20;99.90;;;;;;5004147;28;20223;-71
2022/01/28 16:00:47;;;;;;;3.17;1.40;;;4.10;99.90;;;;;;4992092;28;20254;-73
2022/01/28 16:03:36;;;;;;;3.73;1.73;;;4.10;99.90;;;;;;4992493;28;20239;-71
2022/01/28 16:06:26;;;;;;;4.10;1.60;;;4.10;99.90;;;;;;4993158;28;20219;-76
2022/01/28 16:09:16;;;;;;;6.37;1.70;;;4.10;99.90;;;;;;5003086;28;20236;-74
2022/01/28 16:12:08;;;;;;;3.93;1.63;;;4.20;99.90;;;;;;5000363;28;20222;-74